National Weather Service Raw Text Product

Displaying AFOS PIL: TAFMCW Received: 2018-06-14 05:20 UTC


501 
FTUS43 KDMX 140520
TAFMCW
TAF
KMCW 140520Z 1406/1506 14004KT P6SM BKN120
     FM140900 13005KT P6SM VCTS BKN070CB
     FM141500 15016G22KT P6SM BKN090
     FM150100 15014KT P6SM SCT120=